Time;durP1;ratioP1;P1;durP2;ratioP2;P2;SDS_P1;SDS_P2;PMS_P1;PMS_P2;Temp;Humidity;BMP_temperature;BMP_pressure;BME280_temperature;BME280_humidity;BME280_pressure;Samples;Min_cycle;Max_cycle;Signal;HPM_P1;HPM_P2
2023/08/04 00:01:09;;;;;;;8.52;2.90;;;16.20;99.90;;;;;;5072215;28;20515;-69
2023/08/04 00:03:34;;;;;;;5.38;2.20;;;16.40;99.90;;;;;;5072429;28;20123;-70
2023/08/04 00:06:00;;;;;;;8.43;2.80;;;16.40;99.90;;;;;;5071046;28;20052;-69
2023/08/04 00:08:25;;;;;;;7.35;2.58;;;16.30;99.90;;;;;;5070642;28;20036;-69
2023/08/04 00:10:51;;;;;;;6.95;2.10;;;16.10;99.90;;;;;;5070812;28;20045;-70
2023/08/04 00:13:17;;;;;;;8.15;2.45;;;16.20;99.90;;;;;;5071093;28;20405;-69
2023/08/04 00:15:42;;;;;;;10.73;2.75;;;16.40;99.90;;;;;;5070624;28;20032;-69
2023/08/04 00:18:08;;;;;;;11.82;2.70;;;16.30;99.90;;;;;;5071861;28;20139;-70
2023/08/04 00:20:33;;;;;;;9.02;2.55;;;16.40;99.90;;;;;;5070899;28;20412;-70
2023/08/04 00:22:59;;;;;;;6.45;2.95;;;16.30;99.90;;;;;;5070901;28;20526;-70
2023/08/04 00:25:25;;;;;;;14.57;2.97;;;16.20;99.90;;;;;;5071981;28;20042;-69
2023/08/04 00:27:50;;;;;;;6.38;2.05;;;16.40;99.90;;;;;;5071731;28;20037;-69
2023/08/04 00:30:16;;;;;;;5.07;2.05;;;16.30;99.90;;;;;;5070481;28;20070;-69
2023/08/04 00:32:41;;;;;;;3.97;2.45;;;16.20;99.90;;;;;;5071425;28;20045;-70
2023/08/04 00:35:07;;;;;;;7.95;2.35;;;16.30;99.90;;;;;;5071403;28;20048;-69
2023/08/04 00:37:34;;;;;;;9.50;2.80;;;16.10;99.90;;;;;;5071445;28;20124;-70
2023/08/04 00:40:00;;;;;;;5.43;2.17;;;16.20;99.90;;;;;;5070465;28;20094;-70
2023/08/04 00:42:25;;;;;;;8.13;2.50;;;16.10;99.90;;;;;;5070715;28;20041;-69
2023/08/04 00:44:51;;;;;;;6.90;2.63;;;16.30;99.90;;;;;;5071822;28;20551;-69
2023/08/04 00:47:16;;;;;;;5.28;3.00;;;16.10;99.90;;;;;;5069601;28;20044;-69
2023/08/04 00:49:45;;;;;;;6.15;2.88;;;16.20;99.90;;;;;;5070384;28;20102;-69
2023/08/04 00:52:11;;;;;;;6.68;2.70;;;16.20;99.90;;;;;;5071413;28;20044;-70
2023/08/04 00:54:37;;;;;;;6.68;2.35;;;16.00;99.90;;;;;;5070356;28;20097;-69
2023/08/04 00:57:04;;;;;;;6.85;2.33;;;16.20;99.90;;;;;;5071192;28;20044;-69
2023/08/04 00:59:29;;;;;;;7.03;2.42;;;16.20;99.90;;;;;;5070375;28;20150;-69
2023/08/04 01:01:55;;;;;;;7.95;2.35;;;16.00;99.90;;;;;;5059732;28;20048;-70
2023/08/04 01:04:21;;;;;;;8.93;2.65;;;16.10;99.90;;;;;;5061759;28;20045;-70
2023/08/04 01:07:04;;;;;;;5.90;2.42;;;16.00;99.90;;;;;;5069143;28;20040;-70
2023/08/04 01:10:14;;;;;;;8.00;2.28;;;16.10;99.90;;;;;;5071505;28;20040;-69
2023/08/04 01:13:03;;;;;;;7.32;2.38;;;15.90;99.90;;;;;;5071432;28;20412;-71
2023/08/04 01:15:29;;;;;;;7.72;2.30;;;16.10;99.90;;;;;;5074373;28;20036;-71
2023/08/04 01:17:55;;;;;;;4.97;2.35;;;15.90;99.90;;;;;;5074002;28;20128;-72
2023/08/04 01:20:25;;;;;;;6.38;2.10;;;15.80;99.90;;;;;;5074260;28;20068;-71
2023/08/04 01:22:51;;;;;;;8.52;2.13;;;16.00;99.90;;;;;;5074389;28;20037;-72
2023/08/04 01:25:18;;;;;;;6.60;2.30;;;15.80;99.90;;;;;;5073764;28;20403;-72
2023/08/04 01:27:46;;;;;;;2.83;1.90;;;15.80;99.90;;;;;;5073812;28;20087;-72
2023/08/04 01:30:18;;;;;;;7.82;1.95;;;15.90;99.90;;;;;;5074194;28;20492;-71
2023/08/04 01:32:44;;;;;;;10.68;2.58;;;15.70;99.90;;;;;;5073886;28;20090;-71
2023/08/04 01:35:11;;;;;;;5.32;1.60;;;15.90;99.90;;;;;;5073766;28;20037;-72
2023/08/04 01:37:36;;;;;;;6.35;2.25;;;15.80;99.90;;;;;;5074915;28;20051;-72
2023/08/04 01:40:02;;;;;;;6.15;2.10;;;15.80;99.90;;;;;;5073781;28;20407;-71
2023/08/04 01:42:28;;;;;;;5.97;2.00;;;15.70;99.90;;;;;;5073643;28;20110;-71
2023/08/04 01:44:53;;;;;;;5.07;1.90;;;15.70;99.90;;;;;;5073708;28;20115;-71
2023/08/04 01:47:19;;;;;;;3.72;1.63;;;15.70;99.90;;;;;;5074596;28;20108;-71
2023/08/04 01:49:44;;;;;;;4.72;1.90;;;15.80;99.90;;;;;;5073929;28;20060;-71
2023/08/04 01:52:10;;;;;;;7.47;2.50;;;15.70;99.90;;;;;;5074727;28;20045;-71
2023/08/04 01:54:36;;;;;;;5.38;1.98;;;15.70;99.90;;;;;;5073454;28;20399;-72
2023/08/04 01:57:01;;;;;;;7.13;2.38;;;15.90;99.90;;;;;;5067981;28;20039;-71
2023/08/04 01:59:27;;;;;;;4.30;2.00;;;15.90;99.90;;;;;;5070244;28;20454;-71
2023/08/04 02:01:52;;;;;;;9.25;2.17;;;15.80;99.90;;;;;;5073114;28;20067;-71
2023/08/04 02:04:18;;;;;;;9.55;2.33;;;15.70;99.90;;;;;;5073480;28;20098;-72
2023/08/04 02:06:43;;;;;;;6.72;2.00;;;15.70;99.90;;;;;;5072664;28;20096;-71
2023/08/04 02:09:09;;;;;;;5.90;2.58;;;15.70;99.90;;;;;;5073362;28;20047;-71
2023/08/04 02:11:35;;;;;;;6.63;2.35;;;15.80;99.90;;;;;;5074206;28;20079;-71
2023/08/04 02:14:00;;;;;;;6.22;2.00;;;15.80;99.90;;;;;;5074478;28;20124;-71
2023/08/04 02:16:26;;;;;;;7.90;2.08;;;15.70;99.90;;;;;;5074124;28;20087;-72
2023/08/04 02:19:03;;;;;;;5.00;1.80;;;15.60;99.90;;;;;;5073198;28;20044;-72
2023/08/04 02:21:29;;;;;;;5.90;1.85;;;15.80;99.90;;;;;;5073105;28;20040;-69
2023/08/04 02:23:55;;;;;;;6.13;1.83;;;15.60;99.90;;;;;;5073795;28;20115;-69
2023/08/04 02:26:20;;;;;;;7.10;2.42;;;15.70;99.90;;;;;;5056361;28;20047;-70
2023/08/04 02:28:46;;;;;;;6.10;1.88;;;15.70;99.90;;;;;;5074185;28;20067;-69
2023/08/04 02:31:11;;;;;;;9.00;1.90;;;15.80;99.90;;;;;;5074260;28;20131;-71
2023/08/04 02:33:38;;;;;;;6.72;2.25;;;15.60;99.90;;;;;;5074182;28;20053;-71
2023/08/04 02:36:04;;;;;;;7.30;2.05;;;15.80;99.90;;;;;;5073908;28;20170;-71
2023/08/04 02:38:29;;;;;;;3.53;2.35;;;15.70;99.90;;;;;;5056008;28;20071;-72
2023/08/04 02:41:04;;;;;;;8.43;2.38;;;15.60;99.90;;;;;;5056015;28;20050;-71
2023/08/04 02:43:30;;;;;;;6.15;2.65;;;15.60;99.90;;;;;;5056052;28;20048;-71
2023/08/04 02:45:56;;;;;;;7.22;1.55;;;15.80;99.90;;;;;;5073757;28;20399;-71
2023/08/04 02:48:21;;;;;;;5.80;1.90;;;15.60;99.90;;;;;;5073660;28;20132;-71
2023/08/04 02:50:56;;;;;;;3.20;1.38;;;15.80;99.90;;;;;;5055739;28;20040;-71
2023/08/04 02:53:21;;;;;;;4.53;1.85;;;15.60;99.90;;;;;;5073758;28;20183;-71
2023/08/04 02:55:47;;;;;;;2.30;1.48;;;15.80;99.90;;;;;;5073463;28;20039;-71
2023/08/04 02:58:12;;;;;;;3.13;1.23;;;15.70;99.90;;;;;;5073355;28;20040;-71
2023/08/04 03:00:38;;;;;;;7.30;1.95;;;15.80;99.90;;;;;;5055485;28;20040;-72
2023/08/04 03:03:04;;;;;;;7.82;2.15;;;15.70;99.90;;;;;;5073107;28;20043;-71
2023/08/04 03:05:34;;;;;;;4.88;1.42;;;15.70;99.90;;;;;;5097915;22;20051;-71
2023/08/04 03:08:00;;;;;;;5.30;1.80;;;15.70;99.90;;;;;;5072375;28;20044;-71
2023/08/04 03:10:25;;;;;;;4.50;1.80;;;15.70;99.90;;;;;;5073390;28;20044;-72
2023/08/04 03:12:51;;;;;;;5.63;1.98;;;15.70;99.90;;;;;;5073393;28;20040;-72
2023/08/04 03:15:16;;;;;;;4.55;1.52;;;15.80;99.90;;;;;;5073411;28;20068;-72
2023/08/04 03:17:42;;;;;;;6.10;1.70;;;15.80;99.90;;;;;;5073404;28;20036;-71
2023/08/04 03:20:08;;;;;;;2.90;1.35;;;15.80;99.90;;;;;;5073123;28;20488;-72
2023/08/04 03:22:34;;;;;;;4.60;1.92;;;15.80;99.90;;;;;;5073353;28;20036;-72
2023/08/04 03:24:59;;;;;;;3.97;1.48;;;15.80;99.90;;;;;;5073193;28;20047;-72
2023/08/04 03:27:25;;;;;;;5.28;2.00;;;15.80;99.90;;;;;;5072489;28;20068;-72
2023/08/04 03:29:50;;;;;;;5.65;1.75;;;15.60;99.90;;;;;;5071923;28;20056;-72
2023/08/04 03:32:16;;;;;;;2.97;1.38;;;15.70;99.90;;;;;;5072853;28;20075;-72
2023/08/04 03:34:41;;;;;;;2.90;1.52;;;15.80;99.90;;;;;;5072572;28;20045;-72
2023/08/04 03:37:07;;;;;;;4.43;1.83;;;15.70;99.90;;;;;;5072438;28;20408;-72
2023/08/04 03:39:33;;;;;;;5.35;1.50;;;15.70;99.90;;;;;;5071695;28;20036;-71
2023/08/04 03:41:58;;;;;;;3.20;1.33;;;15.60;99.90;;;;;;5072836;28;20089;-72
2023/08/04 03:44:24;;;;;;;2.55;1.40;;;15.50;99.90;;;;;;5072730;28;20079;-72
2023/08/04 03:46:49;;;;;;;5.15;1.30;;;15.70;99.90;;;;;;5072305;28;20044;-71
2023/08/04 03:49:15;;;;;;;2.17;1.30;;;15.50;99.90;;;;;;5072607;28;20569;-72
2023/08/04 03:51:40;;;;;;;6.43;1.80;;;15.60;99.90;;;;;;5071425;28;20045;-71
2023/08/04 03:54:06;;;;;;;6.97;1.73;;;15.40;99.90;;;;;;5072490;28;20037;-71
2023/08/04 03:56:31;;;;;;;5.70;1.63;;;15.60;99.90;;;;;;5070869;28;20044;-71
2023/08/04 03:58:57;;;;;;;3.72;1.30;;;15.60;99.90;;;;;;5072065;28;20091;-71
2023/08/04 04:01:23;;;;;;;6.80;1.60;;;15.30;99.90;;;;;;5072323;28;20036;-71
2023/08/04 04:03:48;;;;;;;4.18;1.60;;;15.40;99.90;;;;;;5072336;28;20041;-71
2023/08/04 04:06:16;;;;;;;6.72;1.88;;;15.50;99.90;;;;;;5072128;28;20043;-71
2023/08/04 04:08:41;;;;;;;5.10;2.13;;;15.40;99.90;;;;;;5072325;28;20045;-72
2023/08/04 04:11:08;;;;;;;4.95;1.95;;;15.50;99.90;;;;;;5071003;28;20179;-72
2023/08/04 04:13:34;;;;;;;12.15;2.70;;;15.30;99.90;;;;;;5072324;28;20119;-71
2023/08/04 04:15:59;;;;;;;4.07;1.45;;;15.30;99.90;;;;;;5054161;28;20119;-71
2023/08/04 04:18:25;;;;;;;3.88;1.38;;;15.50;99.90;;;;;;5071838;28;20036;-72
2023/08/04 04:20:51;;;;;;;6.35;1.67;;;15.40;99.90;;;;;;5071811;28;20065;-72
2023/08/04 04:23:16;;;;;;;5.60;1.83;;;15.60;99.90;;;;;;5070908;28;20079;-72
2023/08/04 04:25:42;;;;;;;3.83;1.88;;;15.40;99.90;;;;;;5071822;28;20124;-72
2023/08/04 04:28:07;;;;;;;4.40;1.80;;;15.50;99.90;;;;;;5071774;28;20041;-72
2023/08/04 04:30:33;;;;;;;4.40;1.88;;;15.60;99.90;;;;;;5070433;28;20075;-72
2023/08/04 04:32:58;;;;;;;2.83;1.30;;;15.50;99.90;;;;;;5071718;28;20044;-72
2023/08/04 04:35:24;;;;;;;3.80;1.50;;;15.40;99.90;;;;;;5071981;28;20399;-72
2023/08/04 04:37:49;;;;;;;3.03;1.60;;;15.70;99.90;;;;;;5071688;28;20412;-72
2023/08/04 04:40:15;;;;;;;4.95;1.70;;;15.60;99.90;;;;;;5071863;28;20082;-72
2023/08/04 04:42:41;;;;;;;4.03;1.35;;;15.40;99.90;;;;;;5071732;28;20032;-72
2023/08/04 04:45:07;;;;;;;2.10;1.38;;;15.70;99.90;;;;;;5071749;28;20036;-72
2023/08/04 04:47:32;;;;;;;2.90;1.48;;;15.60;99.90;;;;;;5069349;28;20049;-72
2023/08/04 04:49:58;;;;;;;3.85;1.48;;;15.50;99.90;;;;;;5071509;28;20039;-72
2023/08/04 04:52:35;;;;;;;3.33;1.23;;;15.50;99.90;;;;;;5071658;28;20094;-72
2023/08/04 04:55:02;;;;;;;3.60;1.48;;;15.70;99.90;;;;;;5071450;28;20161;-72
2023/08/04 04:57:28;;;;;;;2.80;1.38;;;15.70;99.90;;;;;;5070268;28;20119;-72
2023/08/04 04:59:54;;;;;;;5.05;1.75;;;15.70;99.90;;;;;;5071680;28;20086;-72
2023/08/04 05:02:20;;;;;;;2.28;1.42;;;15.80;99.90;;;;;;5071582;28;20040;-72
2023/08/04 05:04:46;;;;;;;3.17;1.83;;;15.70;99.90;;;;;;5071680;28;20044;-72
2023/08/04 05:07:11;;;;;;;2.97;2.00;;;15.60;99.90;;;;;;5071020;28;20214;-72
2023/08/04 05:09:38;;;;;;;3.63;1.30;;;15.80;99.90;;;;;;5071609;28;20036;-72
2023/08/04 05:12:04;;;;;;;3.78;1.77;;;15.70;99.90;;;;;;5071352;28;20048;-72
2023/08/04 05:14:30;;;;;;;2.28;1.67;;;15.70;99.90;;;;;;5070139;28;20041;-72
2023/08/04 05:16:55;;;;;;;3.25;1.60;;;15.80;99.90;;;;;;5069500;28;20045;-72
2023/08/04 05:19:21;;;;;;;4.28;1.60;;;16.00;99.90;;;;;;5069985;28;20028;-72
2023/08/04 05:21:46;;;;;;;2.90;2.08;;;15.80;99.90;;;;;;5071449;28;20123;-72
2023/08/04 05:24:12;;;;;;;4.55;1.70;;;15.90;99.90;;;;;;5070070;28;20048;-72
2023/08/04 05:26:38;;;;;;;2.47;1.73;;;16.00;99.90;;;;;;5053249;28;20041;-72
2023/08/04 05:29:03;;;;;;;6.20;1.90;;;15.90;99.90;;;;;;5071289;28;20040;-72
2023/08/04 05:31:29;;;;;;;3.13;1.60;;;15.90;99.90;;;;;;5070030;28;20037;-72
2023/08/04 05:33:56;;;;;;;2.35;1.55;;;15.90;99.90;;;;;;5071470;28;20040;-72
2023/08/04 05:36:23;;;;;;;3.33;1.63;;;15.90;99.90;;;;;;5071162;28;20173;-72
2023/08/04 05:38:49;;;;;;;2.65;1.58;;;15.90;99.90;;;;;;5071162;28;20045;-72
2023/08/04 05:41:14;;;;;;;3.30;1.70;;;15.90;99.90;;;;;;5071206;28;20036;-72
2023/08/04 05:43:40;;;;;;;2.70;1.50;;;15.90;99.90;;;;;;5071122;28;20054;-72
2023/08/04 05:46:05;;;;;;;3.28;1.80;;;16.00;99.90;;;;;;5069680;28;20052;-72
2023/08/04 05:48:33;;;;;;;2.35;1.50;;;15.90;99.90;;;;;;5071052;28;20040;-72
2023/08/04 05:50:59;;;;;;;3.50;1.80;;;16.10;99.90;;;;;;5069632;28;20574;-72
2023/08/04 05:53:25;;;;;;;3.20;1.27;;;15.90;99.90;;;;;;5071140;28;20134;-72
2023/08/04 05:55:50;;;;;;;2.53;1.63;;;15.90;99.90;;;;;;5071009;28;20036;-72
2023/08/04 05:58:16;;;;;;;4.18;1.40;;;16.00;99.90;;;;;;5071173;28;20477;-72
2023/08/04 06:00:42;;;;;;;3.00;1.70;;;16.20;99.90;;;;;;5074589;28;20049;-72
2023/08/04 06:03:08;;;;;;;4.05;1.60;;;15.90;99.90;;;;;;5074345;28;20029;-71
2023/08/04 06:05:33;;;;;;;3.50;1.90;;;16.00;99.90;;;;;;5074545;28;20739;-71
2023/08/04 06:07:59;;;;;;;3.30;1.50;;;16.00;99.90;;;;;;5074452;28;20068;-71
2023/08/04 06:10:25;;;;;;;4.38;1.70;;;16.10;99.90;;;;;;5074673;28;20403;-72
2023/08/04 06:12:51;;;;;;;2.38;1.77;;;16.30;99.90;;;;;;5074591;28;20033;-71
2023/08/04 06:15:17;;;;;;;2.38;1.40;;;16.40;99.90;;;;;;5074494;28;20036;-71
2023/08/04 06:17:43;;;;;;;4.25;1.52;;;16.30;99.90;;;;;;5074412;28;20123;-72
2023/08/04 06:20:10;;;;;;;6.05;2.08;;;16.20;99.90;;;;;;5074513;28;20513;-72
2023/08/04 06:22:36;;;;;;;2.70;1.55;;;16.20;99.90;;;;;;5074520;28;20119;-72
2023/08/04 06:25:03;;;;;;;7.80;1.90;;;16.40;99.90;;;;;;5073048;28;20381;-72
2023/08/04 06:27:28;;;;;;;2.83;1.55;;;16.50;99.90;;;;;;5073931;28;20051;-72
2023/08/04 06:29:54;;;;;;;4.15;1.83;;;16.40;99.90;;;;;;5074692;28;20032;-72
2023/08/04 06:32:20;;;;;;;4.45;1.92;;;16.60;99.90;;;;;;5074541;28;20495;-72
2023/08/04 06:34:45;;;;;;;2.20;1.63;;;16.60;99.90;;;;;;5074581;28;20523;-71
2023/08/04 06:37:11;;;;;;;3.90;1.98;;;16.60;99.90;;;;;;5074209;28;20037;-72
2023/08/04 06:39:36;;;;;;;4.13;1.90;;;16.70;99.90;;;;;;5074646;28;20038;-72
2023/08/04 06:42:04;;;;;;;2.60;1.50;;;16.70;99.90;;;;;;5074478;28;20056;-72
2023/08/04 06:44:30;;;;;;;2.95;1.80;;;16.70;99.90;;;;;;5075777;28;20048;-71
2023/08/04 06:46:55;;;;;;;4.35;1.80;;;16.50;99.90;;;;;;5075434;28;20072;-73
2023/08/04 06:49:21;;;;;;;3.20;1.88;;;16.70;99.90;;;;;;5071321;28;20040;-73
2023/08/04 06:51:49;;;;;;;4.57;1.42;;;16.70;99.90;;;;;;5073138;28;20114;-72
2023/08/04 06:54:15;;;;;;;3.65;1.42;;;16.70;99.90;;;;;;5072913;28;20051;-72
2023/08/04 06:56:41;;;;;;;6.97;1.80;;;16.70;99.90;;;;;;5073713;28;20115;-72
2023/08/04 06:59:06;;;;;;;4.72;1.63;;;16.70;99.90;;;;;;5073644;28;20079;-72
2023/08/04 07:01:32;;;;;;;5.38;1.92;;;17.00;99.90;;;;;;5074089;28;20036;-72
2023/08/04 07:03:57;;;;;;;4.65;1.50;;;16.90;99.90;;;;;;5073956;28;20507;-73
2023/08/04 07:06:23;;;;;;;2.65;1.50;;;17.00;99.90;;;;;;5073448;28;20044;-72
2023/08/04 07:08:49;;;;;;;4.43;1.40;;;17.10;99.90;;;;;;5073552;28;20051;-72
2023/08/04 07:11:16;;;;;;;4.07;1.88;;;17.00;99.90;;;;;;5071415;28;20040;-72
2023/08/04 07:13:43;;;;;;;3.03;1.60;;;17.30;99.90;;;;;;5073492;28;20082;-72
2023/08/04 07:16:10;;;;;;;2.65;1.50;;;17.40;99.90;;;;;;5073459;28;20553;-72
2023/08/04 07:18:36;;;;;;;5.53;2.10;;;17.40;99.90;;;;;;5073232;28;20094;-72
2023/08/04 07:21:12;;;;;;;2.75;1.70;;;17.50;99.90;;;;;;5072162;28;20049;-72
2023/08/04 07:23:39;;;;;;;4.82;2.40;;;17.30;99.90;;;;;;5072273;28;20124;-72
2023/08/04 07:26:06;;;;;;;5.97;1.40;;;17.30;99.90;;;;;;5073092;28;20048;-72
2023/08/04 07:28:35;;;;;;;4.35;1.90;;;17.40;99.90;;;;;;5071731;28;20131;-73
2023/08/04 07:31:08;;;;;;;7.40;2.20;;;17.60;99.90;;;;;;5073060;28;20075;-73
2023/08/04 07:33:35;;;;;;;7.15;1.80;;;17.50;99.90;;;;;;5072822;28;20072;-72
2023/08/04 07:36:02;;;;;;;6.57;2.10;;;17.60;99.90;;;;;;5072935;28;20161;-72
2023/08/04 07:38:28;;;;;;;5.10;2.22;;;17.60;99.90;;;;;;5071703;28;20050;-72
2023/08/04 07:40:54;;;;;;;5.60;2.47;;;17.50;99.90;;;;;;5071616;28;20415;-72
2023/08/04 07:43:20;;;;;;;3.72;1.92;;;17.50;99.90;;;;;;5054988;28;20045;-73
2023/08/04 07:45:46;;;;;;;4.40;2.25;;;17.70;99.90;;;;;;5072821;28;20131;-72
2023/08/04 07:48:11;;;;;;;2.85;1.90;;;17.60;99.90;;;;;;5071404;28;20511;-72
2023/08/04 07:50:43;;;;;;;2.30;1.60;;;17.60;99.90;;;;;;5071339;28;20421;-73
2023/08/04 07:53:09;;;;;;;5.65;2.55;;;17.70;99.90;;;;;;5071627;28;20043;-72
2023/08/04 07:55:35;;;;;;;4.75;2.22;;;17.70;99.90;;;;;;5071426;28;20037;-72
2023/08/04 07:58:01;;;;;;;12.55;2.45;;;17.60;99.90;;;;;;5072526;28;20055;-72
2023/08/04 08:00:27;;;;;;;11.65;2.60;;;17.60;99.90;;;;;;5071274;28;20507;-72
2023/08/04 08:02:52;;;;;;;7.47;2.25;;;17.70;99.90;;;;;;5071238;28;20047;-72
2023/08/04 08:05:18;;;;;;;5.50;2.42;;;17.50;99.90;;;;;;5072442;28;20415;-72
2023/08/04 08:07:43;;;;;;;6.07;2.33;;;17.70;99.90;;;;;;5071841;28;20036;-73
2023/08/04 08:10:09;;;;;;;9.55;2.30;;;17.60;99.90;;;;;;5071269;28;20504;-72
2023/08/04 08:12:35;;;;;;;7.53;2.75;;;17.60;99.90;;;;;;5071121;28;20496;-72
2023/08/04 08:15:00;;;;;;;5.35;2.95;;;17.80;99.90;;;;;;5071022;28;20082;-72
2023/08/04 08:17:26;;;;;;;4.93;1.83;;;17.50;99.90;;;;;;5070625;28;20064;-72
2023/08/04 08:19:51;;;;;;;9.93;3.10;;;17.50;99.90;;;;;;5072139;28;20036;-72
2023/08/04 08:22:17;;;;;;;7.25;3.00;;;17.80;99.90;;;;;;5071982;28;20044;-72
2023/08/04 08:24:43;;;;;;;9.27;2.22;;;17.70;99.90;;;;;;5072294;28;20078;-74
2023/08/04 08:27:08;;;;;;;7.72;2.00;;;17.70;99.90;;;;;;5071733;28;20029;-73
2023/08/04 08:29:35;;;;;;;6.97;3.22;;;17.60;99.90;;;;;;5072075;28;20037;-73
2023/08/04 08:32:01;;;;;;;7.65;2.55;;;17.70;99.90;;;;;;5051810;28;20041;-73
2023/08/04 08:34:26;;;;;;;7.53;2.03;;;17.30;99.90;;;;;;5071515;28;20036;-73
2023/08/04 08:36:52;;;;;;;2.45;1.23;;;17.20;99.90;;;;;;5071198;28;20036;-73
2023/08/04 08:39:18;;;;;;;4.35;1.17;;;16.70;99.90;;;;;;5071774;28;20035;-72
2023/08/04 08:41:43;;;;;;;7.30;1.33;;;16.60;99.90;;;;;;5071672;28;20051;-72
2023/08/04 08:44:09;;;;;;;5.57;1.40;;;16.50;99.90;;;;;;5071712;28;20407;-72
2023/08/04 08:46:35;;;;;;;5.72;1.67;;;16.50;99.90;;;;;;5071419;28;20044;-72
2023/08/04 08:49:03;;;;;;;6.78;1.80;;;16.20;99.90;;;;;;5071132;28;20392;-72
2023/08/04 08:51:30;;;;;;;4.57;1.55;;;16.40;99.90;;;;;;5068212;28;20040;-72
2023/08/04 08:53:57;;;;;;;6.00;1.55;;;16.30;99.90;;;;;;5071003;28;20032;-72
2023/08/04 08:56:25;;;;;;;2.78;1.20;;;16.30;99.90;;;;;;5070080;28;20086;-72
2023/08/04 08:58:51;;;;;;;3.97;1.35;;;16.60;99.90;;;;;;5069975;28;20450;-72
2023/08/04 09:01:17;;;;;;;4.82;1.90;;;16.90;99.90;;;;;;5071463;28;20433;-72
2023/08/04 09:03:44;;;;;;;3.42;1.65;;;17.50;99.90;;;;;;5069895;28;20055;-72
2023/08/04 09:06:09;;;;;;;5.03;1.80;;;17.70;99.90;;;;;;5070860;28;20044;-72
2023/08/04 09:08:35;;;;;;;6.18;2.13;;;17.80;99.90;;;;;;5071387;28;20037;-73
2023/08/04 09:11:02;;;;;;;6.50;2.40;;;17.90;99.90;;;;;;5071527;28;20040;-73
2023/08/04 09:13:27;;;;;;;9.25;2.78;;;17.70;99.90;;;;;;5070334;28;20487;-72
2023/08/04 09:15:56;;;;;;;6.28;2.40;;;17.80;99.90;;;;;;5071510;28;20072;-73
2023/08/04 09:18:25;;;;;;;7.60;2.63;;;17.70;99.90;;;;;;5069966;28;20032;-73
2023/08/04 09:21:00;;;;;;;4.60;1.77;;;17.40;99.90;;;;;;5071752;28;20037;-72
2023/08/04 09:23:30;;;;;;;6.13;1.88;;;17.40;99.90;;;;;;5071665;28;20032;-72
2023/08/04 09:25:56;;;;;;;4.05;1.67;;;17.30;99.90;;;;;;5070075;28;20170;-73
2023/08/04 09:28:22;;;;;;;4.90;2.28;;;17.40;99.90;;;;;;5071188;28;20103;-72
2023/08/04 09:31:00;;;;;;;6.80;2.00;;;17.60;99.90;;;;;;5069995;28;20507;-73
2023/08/04 09:33:25;;;;;;;4.68;1.80;;;17.30;99.90;;;;;;5071112;28;20048;-72
2023/08/04 09:36:09;;;;;;;4.60;1.75;;;17.60;99.90;;;;;;5075387;28;20552;-73
2023/08/04 09:38:37;;;;;;;5.00;2.42;;;17.60;99.90;;;;;;5075237;28;20032;-72
2023/08/04 09:41:05;;;;;;;6.47;1.90;;;17.50;99.90;;;;;;5075231;28;20534;-73
2023/08/04 09:43:31;;;;;;;3.45;2.05;;;17.60;99.90;;;;;;5075023;28;20543;-72
2023/08/04 09:45:58;;;;;;;7.28;1.92;;;17.80;99.90;;;;;;5075185;28;20044;-72
2023/08/04 09:48:27;;;;;;;5.75;2.53;;;17.70;99.90;;;;;;5073590;28;20040;-72
2023/08/04 09:51:09;;;;;;;6.00;2.28;;;17.90;99.90;;;;;;5075065;28;20048;-72
2023/08/04 09:53:52;;;;;;;2.97;1.85;;;17.90;99.90;;;;;;5073894;28;20115;-72
2023/08/04 09:56:19;;;;;;;;;;;17.80;99.90;;;;;;5075264;28;20560;-72
2023/08/04 09:58:46;;;;;;;8.40;2.42;;;17.60;99.90;;;;;;5074951;28;19941;-72
2023/08/04 10:01:13;;;;;;;10.50;2.40;;;17.40;99.90;;;;;;5074904;28;20050;-72
2023/08/04 10:03:43;;;;;;;7.82;2.60;;;17.40;99.90;;;;;;5074870;28;20111;-72
2023/08/04 10:06:09;;;;;;;4.15;2.22;;;17.60;99.90;;;;;;5074527;28;20521;-72
2023/08/04 10:08:39;;;;;;;5.13;2.08;;;17.50;99.90;;;;;;5074491;28;20048;-72
2023/08/04 10:11:06;;;;;;;7.13;2.60;;;17.30;99.90;;;;;;5074816;28;20143;-72
2023/08/04 10:13:35;;;;;;;7.35;2.58;;;17.40;99.90;;;;;;5074748;28;20036;-72
2023/08/04 10:16:04;;;;;;;8.40;3.78;;;17.70;99.90;;;;;;5074455;28;20037;-72
2023/08/04 10:18:48;;;;;;;10.05;3.25;;;17.70;99.90;;;;;;5074384;28;20399;-72
2023/08/04 10:21:15;;;;;;;11.50;3.15;;;17.60;99.90;;;;;;5074725;28;20464;-72
2023/08/04 10:23:41;;;;;;;5.72;4.40;;;18.00;99.90;;;;;;5074601;28;20056;-72
2023/08/04 10:26:11;;;;;;;11.48;4.07;;;18.20;99.90;;;;;;5074422;28;20416;-72
2023/08/04 10:29:01;;;;;;;11.95;3.92;;;18.50;99.90;;;;;;5074317;28;20446;-72
2023/08/04 10:31:52;;;;;;;7.53;3.55;;;18.60;99.90;;;;;;5074121;28;20032;-73
2023/08/04 10:34:25;;;;;;;10.70;3.22;;;19.00;99.90;;;;;;5074309;28;20082;-72
2023/08/04 10:36:55;;;;;;;;;;;19.00;99.90;;;;;;5074431;28;20396;-72
2023/08/04 10:39:29;;;;;;;6.50;2.17;;;19.10;99.90;;;;;;5074153;28;19916;-73
2023/08/04 10:41:55;;;;;;;7.15;2.47;;;19.20;99.90;;;;;;5074079;28;20528;-72
2023/08/04 10:44:25;;;;;;;4.85;1.80;;;19.10;99.90;;;;;;5073704;28;20041;-73
2023/08/04 10:46:52;;;;;;;6.32;1.58;;;18.90;99.90;;;;;;5072842;28;20044;-72
2023/08/04 10:49:17;;;;;;;3.65;1.48;;;18.50;99.90;;;;;;5072735;28;20438;-72
2023/08/04 10:51:46;;;;;;;3.83;1.35;;;18.40;99.90;;;;;;5073878;28;20037;-72
2023/08/04 10:54:11;;;;;;;4.45;1.33;;;18.30;99.90;;;;;;5072650;28;20059;-73
2023/08/04 10:56:38;;;;;;;2.15;1.00;;;18.20;99.90;;;;;;5073538;28;20408;-72
2023/08/04 10:59:07;;;;;;;5.70;1.30;;;18.00;99.90;;;;;;5073566;28;20036;-73
2023/08/04 11:01:33;;;;;;;3.88;1.05;;;18.10;99.90;;;;;;5073777;28;20507;-73
2023/08/04 11:03:58;;;;;;;4.40;1.17;;;18.20;99.90;;;;;;5073843;28;20036;-73
2023/08/04 11:06:24;;;;;;;3.85;1.00;;;18.10;99.90;;;;;;5073379;28;20170;-73
2023/08/04 11:08:50;;;;;;;4.80;1.67;;;18.30;99.90;;;;;;5073388;28;20032;-72
2023/08/04 11:11:15;;;;;;;5.13;2.00;;;18.50;99.90;;;;;;5072336;28;20070;-73
2023/08/04 11:13:41;;;;;;;2.63;1.58;;;18.50;99.90;;;;;;5073569;28;20514;-73
2023/08/04 11:16:07;;;;;;;3.85;1.20;;;18.50;99.90;;;;;;5073324;28;20036;-73
2023/08/04 11:18:34;;;;;;;3.17;1.05;;;18.70;99.90;;;;;;5073173;28;20040;-73
2023/08/04 11:21:01;;;;;;;4.28;1.17;;;18.70;99.90;;;;;;5073293;28;20044;-73
2023/08/04 11:23:29;;;;;;;10.30;1.23;;;18.90;99.90;;;;;;5073157;28;20123;-73
2023/08/04 11:25:56;;;;;;;1.60;1.02;;;18.80;99.90;;;;;;5073079;28;20511;-73
2023/08/04 11:28:22;;;;;;;3.30;1.10;;;19.00;99.90;;;;;;5071765;28;20049;-73
2023/08/04 11:30:47;;;;;;;4.13;0.90;;;19.30;99.90;;;;;;5073134;28;20085;-73
2023/08/04 11:33:16;;;;;;;3.22;1.00;;;19.20;99.90;;;;;;5071797;28;20492;-73
2023/08/04 11:35:44;;;;;;;2.22;0.90;;;19.10;99.90;;;;;;5072999;28;20040;-73
2023/08/04 11:38:10;;;;;;;2.83;1.40;;;18.90;99.90;;;;;;5054847;28;20043;-73
2023/08/04 11:40:52;;;;;;;6.75;1.30;;;18.90;99.90;;;;;;5072983;28;20115;-72
2023/08/04 11:43:18;;;;;;;2.33;0.93;;;18.80;99.90;;;;;;5073064;28;20044;-73
2023/08/04 11:45:46;;;;;;;6.95;1.13;;;19.00;99.90;;;;;;5071557;28;20036;-73
2023/08/04 11:48:12;;;;;;;4.38;0.90;;;19.10;99.90;;;;;;5072651;28;20098;-73
2023/08/04 11:50:37;;;;;;;2.88;1.05;;;18.90;99.90;;;;;;5072616;28;20032;-73
2023/08/04 11:53:03;;;;;;;4.38;1.20;;;19.20;99.90;;;;;;5071482;28;20124;-73
2023/08/04 11:55:29;;;;;;;3.58;1.00;;;18.90;99.90;;;;;;5072426;28;20040;-72
2023/08/04 11:57:55;;;;;;;4.18;1.40;;;19.30;99.90;;;;;;5072032;28;20036;-73
2023/08/04 12:00:37;;;;;;;1.35;0.98;;;19.40;99.90;;;;;;5072612;28;20037;-73
2023/08/04 12:03:04;;;;;;;2.88;1.30;;;19.10;99.90;;;;;;5072486;28;20157;-72
2023/08/04 12:05:31;;;;;;;3.10;1.10;;;19.20;99.90;;;;;;5072417;28;20040;-73
2023/08/04 12:08:13;;;;;;;5.00;1.40;;;19.50;99.90;;;;;;5072356;28;20041;-73
2023/08/04 12:10:39;;;;;;;4.15;1.42;;;19.20;99.90;;;;;;5072492;28;20040;-73
2023/08/04 12:13:05;;;;;;;6.53;1.40;;;19.00;99.90;;;;;;5072325;28;20037;-72
2023/08/04 12:15:53;;;;;;;3.28;0.98;;;19.00;99.90;;;;;;5072087;28;20093;-72
2023/08/04 12:18:26;;;;;;;2.55;1.65;;;19.10;99.90;;;;;;5072165;28;20036;-73
2023/08/04 12:20:52;;;;;;;2.00;1.27;;;18.80;99.90;;;;;;5072285;28;20101;-73
2023/08/04 12:23:17;;;;;;;3.90;1.08;;;19.00;99.90;;;;;;5072159;28;20032;-72
2023/08/04 12:25:43;;;;;;;6.15;1.35;;;19.10;99.90;;;;;;5072118;28;20648;-73
2023/08/04 12:28:11;;;;;;;4.00;1.52;;;19.40;99.90;;;;;;5071241;28;20106;-73
2023/08/04 12:30:37;;;;;;;3.35;1.00;;;19.20;99.90;;;;;;5072020;28;20044;-72
2023/08/04 12:33:03;;;;;;;6.50;1.45;;;19.20;99.90;;;;;;5053987;28;20175;-72
2023/08/04 12:35:28;;;;;;;4.38;1.33;;;19.40;99.90;;;;;;5068414;28;20120;-73
2023/08/04 12:37:54;;;;;;;4.85;1.40;;;19.20;99.90;;;;;;5071533;28;20079;-73
2023/08/04 12:40:19;;;;;;;6.72;1.85;;;19.20;99.90;;;;;;5071931;28;20033;-73
2023/08/04 12:42:45;;;;;;;6.05;1.70;;;19.40;99.90;;;;;;5071556;28;20032;-73
2023/08/04 12:45:10;;;;;;;4.78;1.80;;;19.30;99.90;;;;;;5071857;28;20064;-73
2023/08/04 12:47:36;;;;;;;4.70;2.08;;;19.60;99.90;;;;;;5071514;28;20062;-73